createdAt,value
2022-10-17T00:01:05.308Z,19.38
2022-10-17T00:03:34.838Z,22.13
2022-10-17T00:06:09.152Z,19.35
2022-10-17T00:08:38.641Z,17.80
2022-10-17T00:11:13.929Z,22.38
2022-10-17T00:13:41.291Z,20.13
2022-10-17T00:16:08.971Z,24.90
2022-10-17T00:18:36.399Z,31.10
2022-10-17T00:21:04.264Z,22.38
2022-10-17T00:23:31.586Z,24.35
2022-10-17T00:26:01.332Z,24.27
2022-10-17T00:28:28.804Z,18.35
2022-10-17T00:30:59.217Z,24.13
2022-10-17T00:33:28.667Z,22.67
2022-10-17T00:36:16.031Z,21.52
2022-10-17T00:38:46.205Z,16.23
2022-10-17T00:41:18.888Z,17.85
2022-10-17T00:43:53.609Z,23.42
2022-10-17T00:46:22.958Z,23.52
2022-10-17T00:48:53.849Z,21.13
2022-10-17T00:51:33.013Z,22.65
2022-10-17T00:54:02.876Z,21.45
2022-10-17T00:56:32.282Z,22.20
2022-10-17T00:59:00.885Z,19.85
2022-10-17T01:01:28.453Z,22.88
2022-10-17T01:03:58.157Z,24.77
2022-10-17T01:06:26.412Z,23.65
2022-10-17T01:08:54.810Z,20.70
2022-10-17T01:11:34.811Z,16.52
2022-10-17T01:14:21.854Z,23.83
2022-10-17T01:17:16.935Z,20.23
2022-10-17T01:20:37.349Z,21.00
2022-10-17T01:23:16.520Z,21.33
2022-10-17T01:26:22.593Z,20.88
2022-10-17T01:28:52.976Z,16.80
2022-10-17T01:31:27.726Z,16.88
2022-10-17T01:34:01.014Z,20.67
2022-10-17T01:36:36.889Z,23.98
2022-10-17T01:39:51.980Z,25.08
2022-10-17T01:42:37.816Z,20.02
2022-10-17T01:45:43.172Z,21.33
2022-10-17T01:48:21.795Z,22.95
2022-10-17T01:51:08.910Z,18.52
2022-10-17T01:53:50.555Z,19.65
2022-10-17T01:56:22.884Z,20.67
2022-10-17T01:59:01.195Z,18.67
2022-10-17T02:04:01.226Z,23.50
2022-10-17T02:06:28.499Z,22.13
2022-10-17T02:08:55.763Z,23.27
2022-10-17T02:11:26.690Z,23.52
2022-10-17T02:14:27.449Z,23.08
2022-10-17T02:17:06.785Z,17.20
2022-10-17T02:20:15.925Z,20.08
2022-10-17T02:23:03.576Z,19.92
2022-10-17T02:25:50.249Z,27.13
2022-10-17T02:28:30.554Z,19.52
2022-10-17T02:31:17.837Z,19.37
2022-10-17T02:34:51.859Z,17.70
2022-10-17T02:37:25.547Z,16.13
2022-10-17T02:39:59.334Z,17.42
2022-10-17T02:42:29.540Z,18.90
2022-10-17T02:45:02.557Z,19.40
2022-10-17T02:47:43.282Z,23.40
2022-10-17T02:50:11.423Z,20.00
2022-10-17T02:53:08.624Z,19.23
2022-10-17T02:55:56.880Z,19.88
2022-10-17T02:58:35.733Z,19.77
2022-10-17T03:01:06.117Z,20.42
2022-10-17T03:03:33.630Z,20.15
2022-10-17T03:06:01.162Z,19.95
2022-10-17T03:08:28.678Z,20.42
2022-10-17T03:10:55.976Z,20.13
2022-10-17T03:13:23.323Z,18.25
2022-10-17T03:15:50.606Z,18.00
2022-10-17T03:18:21.000Z,23.95
2022-10-17T03:20:48.180Z,19.65
2022-10-17T03:23:16.849Z,18.20
2022-10-17T03:25:44.109Z,19.52
2022-10-17T03:28:12.478Z,21.60
2022-10-17T03:30:39.710Z,18.67
2022-10-17T03:33:07.029Z,18.05
2022-10-17T03:35:34.384Z,18.00
2022-10-17T03:38:01.606Z,19.27
2022-10-17T03:40:28.891Z,23.07
2022-10-17T03:42:56.124Z,18.50
2022-10-17T03:45:23.384Z,19.30
2022-10-17T03:47:50.760Z,21.08
2022-10-17T03:50:18.027Z,16.95
2022-10-17T03:52:49.727Z,18.45
2022-10-17T03:55:17.756Z,15.90
2022-10-17T03:57:45.692Z,19.15
2022-10-17T04:00:13.807Z,17.92
2022-10-17T04:02:41.560Z,18.30
2022-10-17T04:05:09.131Z,18.60
2022-10-17T04:07:37.712Z,18.90
2022-10-17T04:10:06.090Z,19.58
2022-10-17T04:12:33.633Z,19.70
2022-10-17T04:15:01.126Z,20.00
2022-10-17T04:17:35.795Z,19.80
2022-10-17T04:20:05.908Z,20.83
2022-10-17T04:22:33.161Z,18.27
2022-10-17T04:25:00.504Z,20.50
2022-10-17T04:27:29.436Z,18.80
2022-10-17T04:29:56.819Z,18.83
2022-10-17T04:32:26.559Z,19.38
2022-10-17T04:34:54.712Z,19.90
2022-10-17T04:37:22.205Z,18.80
2022-10-17T04:39:49.624Z,17.55
2022-10-17T04:42:16.988Z,17.67
2022-10-17T04:44:44.328Z,20.27
2022-10-17T04:47:11.507Z,18.65
2022-10-17T04:49:38.841Z,19.03
2022-10-17T04:52:06.789Z,21.65
2022-10-17T04:54:34.063Z,22.90
2022-10-17T04:57:02.688Z,20.40
2022-10-17T04:59:30.207Z,24.08
2022-10-17T05:02:04.858Z,18.30
2022-10-17T05:04:33.679Z,20.90
2022-10-17T05:07:01.132Z,21.75
2022-10-17T05:09:28.737Z,21.33
2022-10-17T05:11:56.196Z,22.17
2022-10-17T05:14:26.521Z,24.00
2022-10-17T05:16:53.851Z,21.75
2022-10-17T05:19:21.130Z,21.50
2022-10-17T05:21:48.536Z,22.42
2022-10-17T05:24:16.571Z,21.80
2022-10-17T05:26:43.996Z,18.67
2022-10-17T05:29:11.560Z,20.70
2022-10-17T05:31:38.916Z,23.38
2022-10-17T05:34:08.985Z,21.98
2022-10-17T05:36:38.776Z,23.13
2022-10-17T05:39:06.884Z,21.17
2022-10-17T05:41:34.592Z,23.73
2022-10-17T05:44:05.385Z,21.90
2022-10-17T05:46:37.337Z,25.02
2022-10-17T05:50:02.995Z,23.02
2022-10-17T05:52:33.439Z,21.65
2022-10-17T05:55:09.246Z,19.73
2022-10-17T05:57:41.330Z,17.17
2022-10-17T06:00:22.158Z,21.35
2022-10-17T06:03:01.318Z,19.83
2022-10-17T06:05:28.767Z,19.75
2022-10-17T06:07:59.604Z,20.63
2022-10-17T06:10:40.309Z,21.98
2022-10-17T06:13:07.631Z,27.77
2022-10-17T06:15:34.964Z,22.52
2022-10-17T06:18:02.351Z,22.27
2022-10-17T06:20:32.363Z,25.25
2022-10-17T06:22:59.756Z,20.10
2022-10-17T06:25:27.283Z,22.45
2022-10-17T06:27:54.543Z,24.17
2022-10-17T06:30:24.217Z,17.60
2022-10-17T06:32:54.022Z,23.53
2022-10-17T06:35:21.695Z,20.85
2022-10-17T06:37:49.003Z,22.45
2022-10-17T06:40:17.738Z,21.90
2022-10-17T06:42:45.213Z,24.30
2022-10-17T06:45:12.689Z,17.38
2022-10-17T06:47:40.416Z,17.20
2022-10-17T06:50:08.243Z,15.32
2022-10-17T06:52:35.539Z,16.40
2022-10-17T06:55:05.818Z,19.77
2022-10-17T06:57:33.249Z,16.73
2022-10-17T07:00:00.570Z,14.95
2022-10-17T07:02:34.061Z,13.82
2022-10-17T07:05:16.593Z,13.93
2022-10-17T07:07:49.600Z,14.63
2022-10-17T07:10:23.266Z,19.08
2022-10-17T07:12:52.740Z,19.10
2022-10-17T07:15:25.487Z,13.47
2022-10-17T07:18:01.522Z,24.10
2022-10-17T07:20:29.314Z,17.73
2022-10-17T07:22:57.155Z,16.15
2022-10-17T07:25:25.154Z,15.38
2022-10-17T07:27:55.747Z,14.45
2022-10-17T07:30:24.164Z,17.55
2022-10-17T07:33:11.980Z,15.65
2022-10-17T07:38:28.449Z,20.13
2022-10-17T07:41:37.468Z,15.55
2022-10-17T07:44:07.936Z,15.52
2022-10-17T07:46:35.358Z,15.77
2022-10-17T07:49:02.763Z,18.02
2022-10-17T07:51:30.179Z,15.70
2022-10-17T07:53:57.898Z,17.83
2022-10-17T07:56:27.487Z,16.27
2022-10-17T08:01:50.711Z,15.32
2022-10-17T08:04:18.404Z,17.17
2022-10-17T08:06:45.770Z,16.73
2022-10-17T08:09:13.396Z,16.83
2022-10-17T08:11:40.963Z,20.52
2022-10-17T08:14:08.261Z,15.32
2022-10-17T08:16:41.905Z,18.60
2022-10-17T08:19:13.118Z,21.63
2022-10-17T08:21:44.975Z,18.75
2022-10-17T08:28:26.082Z,14.88
2022-10-17T08:34:16.048Z,19.45
2022-10-17T08:43:03.752Z,20.77
2022-10-17T08:45:54.480Z,17.77
2022-10-17T08:49:11.990Z,16.85
2022-10-17T08:52:39.375Z,14.98
2022-10-17T08:55:50.570Z,16.80
2022-10-17T08:58:31.438Z,14.80
2022-10-17T09:01:24.105Z,15.13
2022-10-17T09:04:38.008Z,19.52
2022-10-17T09:07:10.330Z,15.37
2022-10-17T09:10:17.194Z,15.38
2022-10-17T09:13:23.006Z,17.55
2022-10-17T09:16:44.436Z,14.07
2022-10-17T09:20:06.120Z,18.98
2022-10-17T09:23:09.476Z,16.73
2022-10-17T09:26:13.481Z,18.60
2022-10-17T09:29:05.103Z,15.80
2022-10-17T09:32:11.459Z,19.58
2022-10-17T09:34:45.006Z,19.17
2022-10-17T09:37:16.544Z,16.27
2022-10-17T09:39:47.304Z,16.13
2022-10-17T09:42:21.451Z,15.35
2022-10-17T09:45:27.130Z,16.85
2022-10-17T09:48:22.922Z,15.85
2022-10-17T09:50:57.928Z,15.02
2022-10-17T09:53:42.931Z,18.42
2022-10-17T09:56:19.237Z,20.50
2022-10-17T09:58:57.970Z,18.30
2022-10-17T10:01:31.603Z,13.57
2022-10-17T10:04:17.330Z,12.17
2022-10-17T10:07:34.612Z,16.42
2022-10-17T10:10:04.712Z,12.48
2022-10-17T10:12:39.948Z,12.93
2022-10-17T10:15:48.194Z,15.55
2022-10-17T10:21:54.280Z,14.10
2022-10-17T10:24:21.878Z,18.15
2022-10-17T10:26:57.053Z,14.98
2022-10-17T10:29:29.021Z,15.07
2022-10-17T10:35:38.016Z,11.43
2022-10-17T10:38:21.638Z,19.95
2022-10-17T10:40:58.288Z,13.23
2022-10-17T10:43:45.528Z,17.40
2022-10-17T10:46:21.867Z,16.85
2022-10-17T10:49:00.325Z,17.27
2022-10-17T10:51:41.389Z,14.38
2022-10-17T10:54:32.502Z,16.88
2022-10-17T10:57:21.031Z,14.45
2022-10-17T11:00:15.968Z,12.70
2022-10-17T11:03:01.740Z,17.10
2022-10-17T11:05:42.908Z,15.02
2022-10-17T11:08:25.747Z,13.55
2022-10-17T11:11:18.364Z,16.75
2022-10-17T11:14:17.828Z,11.93
2022-10-17T11:16:56.629Z,14.75
2022-10-17T11:20:20.935Z,12.10
2022-10-17T11:22:57.672Z,12.57
2022-10-17T11:25:39.281Z,13.90
2022-10-17T11:28:24.948Z,12.73
2022-10-17T11:31:09.704Z,15.70
2022-10-17T11:33:47.685Z,14.80
2022-10-17T11:36:21.675Z,13.63
2022-10-17T11:39:27.770Z,16.43
2022-10-17T11:42:07.259Z,15.40
2022-10-17T11:44:40.640Z,16.05
2022-10-17T11:47:31.066Z,18.95
2022-10-17T11:53:09.388Z,15.65
2022-10-17T11:55:38.545Z,18.83
2022-10-17T11:58:34.155Z,15.02
2022-10-17T12:01:20.282Z,14.82
2022-10-17T12:04:24.693Z,12.27
2022-10-17T12:07:44.194Z,15.40
2022-10-17T12:10:40.764Z,17.55
2022-10-17T12:13:36.849Z,14.82
2022-10-17T12:16:20.809Z,15.40
2022-10-17T12:19:10.959Z,10.93
2022-10-17T12:22:13.210Z,11.93
2022-10-17T12:24:44.296Z,17.30
2022-10-17T12:27:45.317Z,14.10
2022-10-17T12:30:12.622Z,12.45
2022-10-17T12:33:07.578Z,15.23
2022-10-17T12:35:38.185Z,13.73
2022-10-17T12:38:21.057Z,12.95
2022-10-17T12:40:55.425Z,12.73
2022-10-17T12:43:28.708Z,15.40
2022-10-17T12:46:01.772Z,12.20
2022-10-17T12:48:38.049Z,13.98
2022-10-17T12:51:35.309Z,14.75
2022-10-17T12:54:13.532Z,11.50
2022-10-17T12:56:49.027Z,10.50
2022-10-17T12:59:28.034Z,10.70
2022-10-17T13:02:01.416Z,9.77
2022-10-17T13:04:32.284Z,9.60
2022-10-17T13:07:01.400Z,11.63
2022-10-17T13:09:43.908Z,14.75
2022-10-17T13:12:41.197Z,10.20
2022-10-17T13:15:17.376Z,7.90
2022-10-17T13:17:45.064Z,12.70
2022-10-17T13:20:28.973Z,15.38
2022-10-17T13:23:00.349Z,10.37
2022-10-17T13:25:28.925Z,9.45
2022-10-17T13:28:13.561Z,12.32
2022-10-17T13:30:49.283Z,12.32
2022-10-17T13:33:35.819Z,21.40
2022-10-17T13:36:08.307Z,9.98
2022-10-17T13:38:40.301Z,9.88
2022-10-17T13:41:34.701Z,10.13
2022-10-17T13:44:13.179Z,11.13
2022-10-17T13:46:42.727Z,10.45
2022-10-17T13:49:41.566Z,13.95
2022-10-17T13:52:25.125Z,10.60
2022-10-17T13:54:54.155Z,10.45
2022-10-17T13:57:30.496Z,9.07
2022-10-17T14:00:09.918Z,8.35
2022-10-17T14:02:42.024Z,10.17
2022-10-17T14:05:19.707Z,8.82
2022-10-17T14:08:19.149Z,11.38
2022-10-17T14:10:47.182Z,10.25
2022-10-17T14:13:33.869Z,10.13
2022-10-17T14:16:04.511Z,8.48
2022-10-17T14:18:37.573Z,11.52
2022-10-17T14:24:21.481Z,9.68
2022-10-17T14:26:53.120Z,9.93
2022-10-17T14:29:53.557Z,9.10
2022-10-17T14:32:22.665Z,10.00
2022-10-17T14:35:05.537Z,12.85
2022-10-17T14:37:47.794Z,10.40
2022-10-17T14:40:20.034Z,10.85
2022-10-17T14:42:50.490Z,10.10
2022-10-17T14:45:35.738Z,12.15
2022-10-17T14:48:17.333Z,8.53
2022-10-17T14:51:16.830Z,10.13
2022-10-17T14:54:05.029Z,12.73
2022-10-17T14:56:41.951Z,10.43
2022-10-17T14:59:18.246Z,9.82
2022-10-17T15:01:52.810Z,10.80
2022-10-17T15:04:20.064Z,8.07
2022-10-17T15:06:55.548Z,9.68
2022-10-17T15:09:23.938Z,13.98
2022-10-17T15:14:18.713Z,11.60
2022-10-17T15:16:45.999Z,12.38
2022-10-17T15:19:14.553Z,11.80
2022-10-17T15:21:46.178Z,14.20
2022-10-17T15:24:15.849Z,8.65
2022-10-17T15:26:43.262Z,16.83
2022-10-17T15:29:16.114Z,10.93
2022-10-17T15:31:43.384Z,13.48
2022-10-17T15:34:11.726Z,10.95
2022-10-17T15:36:49.750Z,13.43
2022-10-17T15:39:17.095Z,14.10
2022-10-17T15:41:44.457Z,10.90
2022-10-17T15:44:11.721Z,12.93
2022-10-17T15:46:41.589Z,15.25
2022-10-17T15:49:15.241Z,11.93
2022-10-17T15:51:42.790Z,14.27
2022-10-17T15:54:10.173Z,17.47
2022-10-17T15:56:51.997Z,22.10
2022-10-17T15:59:30.719Z,18.00
2022-10-17T16:01:58.016Z,21.33
2022-10-17T16:04:27.381Z,13.98
2022-10-17T16:06:54.658Z,16.58
2022-10-17T16:09:21.926Z,20.42
2022-10-17T16:11:50.530Z,19.45
2022-10-17T16:14:18.603Z,10.55
2022-10-17T16:16:47.535Z,14.27
2022-10-17T16:19:14.858Z,15.38
2022-10-17T16:21:42.775Z,12.68
2022-10-17T16:24:12.341Z,15.45
2022-10-17T16:26:42.554Z,19.95
2022-10-17T16:29:10.255Z,15.40
2022-10-17T16:31:43.587Z,14.18
2022-10-17T16:34:13.832Z,32.60
2022-10-17T16:36:45.485Z,20.73
2022-10-17T16:39:12.880Z,27.90
2022-10-17T16:41:41.391Z,41.38
2022-10-17T16:44:14.615Z,48.20
2022-10-17T16:46:42.083Z,18.17
2022-10-17T16:49:10.497Z,15.95
2022-10-17T16:51:37.757Z,22.17
2022-10-17T16:54:05.115Z,20.23
2022-10-17T16:56:33.185Z,26.45
2022-10-17T16:59:02.234Z,24.92
2022-10-17T17:01:29.907Z,15.35
2022-10-17T17:03:57.531Z,24.38
2022-10-17T17:06:29.739Z,16.90
2022-10-17T17:08:58.042Z,15.88
2022-10-17T17:11:27.773Z,14.63
2022-10-17T17:14:01.558Z,14.63
2022-10-17T17:16:31.104Z,22.08
2022-10-17T17:19:08.590Z,19.38
2022-10-17T17:21:36.991Z,14.35
2022-10-17T17:24:05.493Z,14.57
2022-10-17T17:29:09.640Z,16.15
2022-10-17T17:31:39.045Z,17.55
